createdAt,value
2018-12-20T00:00:51.526Z,61.91
2018-12-20T00:03:26.012Z,61.82
2018-12-20T00:06:01.679Z,61.72
2018-12-20T00:11:20.874Z,61.75
2018-12-20T00:13:56.140Z,61.98
2018-12-20T00:16:33.615Z,61.78
2018-12-20T00:19:10.452Z,61.90
2018-12-20T00:21:45.990Z,62.10
2018-12-20T00:24:21.622Z,62.20
2018-12-20T00:26:58.082Z,62.16
2018-12-20T00:29:32.023Z,62.28
2018-12-20T00:32:09.942Z,62.33
2018-12-20T00:34:52.358Z,62.13
2018-12-20T00:37:27.481Z,62.20
2018-12-20T00:40:06.432Z,62.24
2018-12-20T00:42:43.769Z,62.37
2018-12-20T00:45:19.645Z,62.31
2018-12-20T00:47:53.705Z,62.21
2018-12-20T00:53:11.994Z,62.09
2018-12-20T00:55:44.613Z,62.16
2018-12-20T00:58:20.906Z,62.34
2018-12-20T01:00:58.068Z,62.39
2018-12-20T01:03:31.483Z,62.26
2018-12-20T01:06:05.826Z,62.36
2018-12-20T01:08:41.665Z,62.39
2018-12-20T01:11:19.093Z,62.38
2018-12-20T01:13:52.661Z,62.56
2018-12-20T01:16:28.492Z,62.35
2018-12-20T01:19:04.504Z,62.39
2018-12-20T01:21:39.037Z,62.38
2018-12-20T01:24:12.788Z,62.41
2018-12-20T01:26:46.085Z,62.59
2018-12-20T01:29:21.264Z,62.62
2018-12-20T01:31:55.366Z,62.60
2018-12-20T01:34:29.540Z,62.37
2018-12-20T01:37:05.109Z,62.28
2018-12-20T01:39:39.606Z,62.33
2018-12-20T01:42:14.691Z,62.13
2018-12-20T01:44:53.428Z,62.48
2018-12-20T01:47:27.641Z,62.56
2018-12-20T01:50:02.575Z,62.30
2018-12-20T01:52:36.773Z,62.60
2018-12-20T01:55:10.366Z,62.42
2018-12-20T01:57:44.806Z,62.49
2018-12-20T02:00:19.995Z,62.59
2018-12-20T02:02:56.148Z,62.48
2018-12-20T02:05:30.267Z,62.47
2018-12-20T02:08:04.702Z,62.51
2018-12-20T02:10:40.878Z,62.22
2018-12-20T02:13:14.465Z,62.54
2018-12-20T02:15:48.138Z,62.51
2018-12-20T02:18:21.652Z,62.46
2018-12-20T02:20:57.038Z,62.42
2018-12-20T02:23:30.505Z,62.44
2018-12-20T02:26:07.590Z,62.17
2018-12-20T02:28:43.589Z,62.24
2018-12-20T02:31:19.197Z,62.33
2018-12-20T02:33:52.581Z,62.33
2018-12-20T02:36:26.649Z,62.53
2018-12-20T02:39:02.455Z,62.62
2018-12-20T02:41:38.959Z,62.45
2018-12-20T02:44:15.839Z,62.26
2018-12-20T02:46:51.121Z,62.36
2018-12-20T02:49:25.357Z,62.53
2018-12-20T02:51:58.843Z,62.78
2018-12-20T02:54:31.640Z,62.68
2018-12-20T02:57:04.354Z,62.73
2018-12-20T02:59:36.978Z,62.51
2018-12-20T03:02:10.560Z,62.85
2018-12-20T03:04:43.224Z,62.55
2018-12-20T03:07:16.115Z,62.91
2018-12-20T03:09:48.871Z,62.87
2018-12-20T03:12:21.753Z,62.84
2018-12-20T03:14:54.854Z,62.83
2018-12-20T03:17:27.750Z,62.55
2018-12-20T03:20:00.541Z,62.68
2018-12-20T03:22:33.265Z,62.93
2018-12-20T03:25:05.881Z,62.81
2018-12-20T03:27:38.665Z,62.71
2018-12-20T03:30:11.353Z,62.90
2018-12-20T03:32:44.289Z,62.98
2018-12-20T03:35:17.802Z,63.04
2018-12-20T03:37:50.583Z,63.11
2018-12-20T03:40:23.268Z,63.07
2018-12-20T03:42:56.233Z,62.97
2018-12-20T03:45:29.372Z,62.98
2018-12-20T03:48:02.362Z,62.99
2018-12-20T03:50:34.983Z,62.98
2018-12-20T03:53:07.793Z,63.04
2018-12-20T03:55:40.729Z,63.15
2018-12-20T03:58:13.545Z,63.05
2018-12-20T04:00:46.401Z,63.11
2018-12-20T04:03:19.286Z,63.05
2018-12-20T04:05:51.925Z,62.96
2018-12-20T04:08:24.686Z,62.95
2018-12-20T04:10:57.267Z,62.98
2018-12-20T04:13:29.939Z,63.17
2018-12-20T04:16:02.805Z,63.38
2018-12-20T04:18:35.665Z,63.43
2018-12-20T04:21:08.339Z,63.48
2018-12-20T04:23:41.010Z,63.59
2018-12-20T04:26:13.679Z,63.42
2018-12-20T04:28:46.658Z,63.48
2018-12-20T04:31:19.467Z,63.58
2018-12-20T04:33:52.097Z,63.63
2018-12-20T04:36:24.755Z,63.66
2018-12-20T04:38:57.741Z,63.67
2018-12-20T04:41:30.707Z,63.44
2018-12-20T04:44:03.672Z,63.72
2018-12-20T04:46:36.364Z,63.97
2018-12-20T04:49:09.316Z,64.13
2018-12-20T04:51:42.359Z,63.92
2018-12-20T04:54:15.350Z,63.85
2018-12-20T04:56:48.172Z,63.98
2018-12-20T04:59:20.949Z,64.02
2018-12-20T05:01:53.774Z,64.01
2018-12-20T05:04:26.627Z,64.00
2018-12-20T05:06:59.292Z,64.02
2018-12-20T05:09:31.944Z,64.14
2018-12-20T05:12:04.928Z,64.12
2018-12-20T05:14:37.858Z,63.92
2018-12-20T05:17:10.679Z,63.74
2018-12-20T05:19:43.679Z,63.75
2018-12-20T05:22:16.519Z,63.73
2018-12-20T05:24:49.239Z,63.73
2018-12-20T05:27:21.876Z,64.02
2018-12-20T05:29:54.628Z,64.16
2018-12-20T05:32:27.260Z,64.10
2018-12-20T05:35:00.113Z,64.05
2018-12-20T05:37:33.213Z,64.20
2018-12-20T05:40:06.705Z,64.17
2018-12-20T05:42:39.610Z,63.90
2018-12-20T05:45:13.467Z,63.82
2018-12-20T05:47:46.305Z,63.70
2018-12-20T05:50:19.157Z,63.85
2018-12-20T05:52:52.001Z,63.93
2018-12-20T05:55:24.728Z,64.03
2018-12-20T05:57:57.655Z,64.24
2018-12-20T06:00:30.466Z,64.27
2018-12-20T06:03:03.041Z,64.29
2018-12-20T06:05:35.794Z,64.10
2018-12-20T06:08:08.462Z,64.21
2018-12-20T06:10:41.232Z,64.37
2018-12-20T06:13:14.139Z,64.22
2018-12-20T06:15:47.153Z,64.15
2018-12-20T06:18:19.985Z,64.47
2018-12-20T06:20:52.823Z,64.51
2018-12-20T06:23:25.415Z,64.65
2018-12-20T06:25:58.061Z,64.62
2018-12-20T06:28:30.647Z,64.57
2018-12-20T06:31:03.309Z,64.56
2018-12-20T06:33:35.955Z,64.65
2018-12-20T06:36:08.683Z,64.67
2018-12-20T06:38:41.449Z,64.76
2018-12-20T06:41:14.112Z,65.06
2018-12-20T06:43:46.739Z,64.98
2018-12-20T06:46:21.274Z,64.83
2018-12-20T06:48:54.182Z,64.87
2018-12-20T06:51:26.865Z,64.68
2018-12-20T06:53:59.504Z,64.80
2018-12-20T06:56:32.164Z,64.62
2018-12-20T06:59:04.896Z,64.76
2018-12-20T07:01:37.785Z,64.65
2018-12-20T07:04:10.358Z,64.71
2018-12-20T07:06:42.971Z,64.58
2018-12-20T07:09:15.736Z,64.52
2018-12-20T07:11:48.364Z,64.69
2018-12-20T07:14:20.991Z,64.79
2018-12-20T07:16:53.737Z,64.81
2018-12-20T07:19:26.337Z,64.70
2018-12-20T07:21:58.980Z,64.75
2018-12-20T07:24:31.645Z,64.76
2018-12-20T07:27:04.440Z,64.68
2018-12-20T07:29:37.069Z,64.79
2018-12-20T07:32:09.693Z,64.94
2018-12-20T07:34:47.899Z,64.71
2018-12-20T07:37:17.238Z,64.90
2018-12-20T07:39:49.873Z,64.68
2018-12-20T07:42:22.593Z,64.77
2018-12-20T07:44:55.375Z,64.79
2018-12-20T07:47:28.063Z,64.73
2018-12-20T07:50:00.646Z,64.71
2018-12-20T07:52:33.358Z,64.84
2018-12-20T07:55:05.976Z,64.80
2018-12-20T07:57:38.597Z,64.61
2018-12-20T08:00:11.448Z,64.77
2018-12-20T08:02:44.057Z,64.81
2018-12-20T08:05:16.692Z,64.80
2018-12-20T08:07:49.333Z,64.53
2018-12-20T08:10:21.921Z,64.71
2018-12-20T08:12:54.672Z,64.61
2018-12-20T08:15:27.286Z,64.67
2018-12-20T08:17:59.930Z,64.69
2018-12-20T08:20:32.545Z,64.70
2018-12-20T08:23:05.147Z,64.58
2018-12-20T08:25:37.771Z,64.29
2018-12-20T08:28:10.385Z,64.52
2018-12-20T08:30:42.974Z,64.35
2018-12-20T08:33:15.671Z,64.38
2018-12-20T08:35:48.264Z,64.44
2018-12-20T08:38:21.078Z,64.54
2018-12-20T08:40:53.705Z,64.25
2018-12-20T08:43:26.408Z,64.23
2018-12-20T08:45:59.038Z,64.30
2018-12-20T08:48:31.775Z,64.16
2018-12-20T08:51:04.492Z,64.22
2018-12-20T08:53:37.134Z,64.36
2018-12-20T08:56:09.697Z,64.35
2018-12-20T08:58:43.344Z,64.73
2018-12-20T09:01:15.945Z,64.75
2018-12-20T09:03:48.641Z,64.90
2018-12-20T09:06:21.200Z,64.84
2018-12-20T09:08:53.803Z,64.91
2018-12-20T09:11:26.408Z,65.03
2018-12-20T09:13:59.017Z,64.88
2018-12-20T09:16:31.647Z,65.28
2018-12-20T09:19:04.567Z,65.22
2018-12-20T09:21:37.271Z,65.23
2018-12-20T09:24:09.916Z,65.27
2018-12-20T09:26:42.509Z,65.21
2018-12-20T09:29:15.227Z,65.14
2018-12-20T09:31:47.812Z,64.92
2018-12-20T09:34:20.493Z,64.96
2018-12-20T09:36:53.096Z,65.02
2018-12-20T09:39:25.824Z,64.85
2018-12-20T09:41:58.534Z,64.66
2018-12-20T09:44:31.243Z,64.49
2018-12-20T09:47:11.931Z,64.41
2018-12-20T09:49:44.211Z,64.45
2018-12-20T09:52:16.960Z,64.30
2018-12-20T09:54:49.661Z,64.38
2018-12-20T09:57:22.281Z,64.27
2018-12-20T09:59:55.351Z,64.21
2018-12-20T10:02:27.963Z,64.23
2018-12-20T10:05:00.730Z,64.20
2018-12-20T10:07:33.351Z,64.22
2018-12-20T10:10:06.912Z,64.14
2018-12-20T10:12:39.520Z,64.12
2018-12-20T10:15:12.258Z,64.03
2018-12-20T10:17:44.909Z,64.30
2018-12-20T10:20:17.738Z,63.77
2018-12-20T10:22:50.550Z,64.00
2018-12-20T10:25:23.301Z,64.04
2018-12-20T10:27:55.954Z,64.35
2018-12-20T10:30:28.611Z,64.36
2018-12-20T10:33:01.255Z,64.11
2018-12-20T10:35:33.990Z,63.76
2018-12-20T10:38:06.823Z,63.77
2018-12-20T10:40:39.561Z,63.99
2018-12-20T10:43:12.205Z,63.84
2018-12-20T10:45:45.363Z,63.76
2018-12-20T10:48:18.048Z,63.88
2018-12-20T10:50:50.761Z,63.96
2018-12-20T10:53:23.631Z,63.91
2018-12-20T10:55:56.483Z,63.84
2018-12-20T10:58:29.115Z,64.00
2018-12-20T11:01:07.251Z,64.01
2018-12-20T11:03:46.148Z,63.83
2018-12-20T11:06:24.365Z,63.62
2018-12-20T11:09:02.815Z,63.84
2018-12-20T11:14:48.253Z,64.04
2018-12-20T11:17:20.980Z,64.43
2018-12-20T11:19:54.260Z,64.01
2018-12-20T11:22:26.972Z,64.00
2018-12-20T11:24:59.631Z,64.35
2018-12-20T11:27:32.303Z,64.33
2018-12-20T11:30:06.600Z,64.25
2018-12-20T11:32:39.517Z,64.37
2018-12-20T11:35:12.281Z,63.89
2018-12-20T11:37:44.909Z,64.28
2018-12-20T11:40:17.583Z,64.22
2018-12-20T11:42:50.356Z,63.71
2018-12-20T11:45:22.963Z,63.69
2018-12-20T11:47:55.626Z,64.13
2018-12-20T11:50:29.248Z,64.05
2018-12-20T11:53:02.125Z,64.18
2018-12-20T11:55:34.699Z,64.22
2018-12-20T11:58:07.538Z,64.14
2018-12-20T12:00:40.152Z,64.08
2018-12-20T12:03:12.852Z,64.22
2018-12-20T12:05:45.452Z,64.05
2018-12-20T12:08:18.199Z,64.05
2018-12-20T12:10:50.804Z,63.96
2018-12-20T12:13:23.557Z,64.16
2018-12-20T12:15:56.221Z,64.19
2018-12-20T12:18:29.004Z,64.11
2018-12-20T12:21:01.616Z,64.15
2018-12-20T12:23:34.242Z,63.97
2018-12-20T12:26:06.834Z,64.00
2018-12-20T12:28:39.517Z,64.35
2018-12-20T12:31:12.359Z,63.92
2018-12-20T12:33:45.102Z,64.04
2018-12-20T12:36:17.687Z,63.68
2018-12-20T12:38:50.452Z,63.77
2018-12-20T12:41:23.107Z,64.34
2018-12-20T12:43:55.754Z,63.68
2018-12-20T12:46:28.387Z,64.00
2018-12-20T12:49:01.018Z,63.67
2018-12-20T12:51:33.659Z,63.50
2018-12-20T12:54:06.306Z,63.89
2018-12-20T12:56:38.890Z,63.86
2018-12-20T12:59:11.597Z,64.13
2018-12-20T13:01:44.373Z,63.98
2018-12-20T13:04:17.007Z,63.92
2018-12-20T13:06:49.746Z,64.37
2018-12-20T13:09:22.388Z,64.19
2018-12-20T13:11:55.090Z,64.06
2018-12-20T13:14:27.736Z,64.22
2018-12-20T13:17:00.400Z,64.02
2018-12-20T13:19:33.182Z,63.73
2018-12-20T13:22:05.839Z,64.04
2018-12-20T13:24:40.259Z,64.28
2018-12-20T13:27:13.194Z,64.19
2018-12-20T13:29:45.888Z,64.64
2018-12-20T13:32:18.547Z,64.19
2018-12-20T13:34:51.322Z,64.17
2018-12-20T13:37:23.932Z,64.34
2018-12-20T13:39:56.685Z,64.16
2018-12-20T13:42:29.306Z,64.34
2018-12-20T13:45:02.095Z,64.40
2018-12-20T13:47:34.777Z,63.87
2018-12-20T13:50:08.061Z,64.26
2018-12-20T13:52:40.646Z,63.89
2018-12-20T13:55:13.383Z,63.95
2018-12-20T13:57:45.979Z,64.09
2018-12-20T14:00:18.622Z,64.04
2018-12-20T14:02:51.236Z,63.87
2018-12-20T14:05:23.893Z,63.94
2018-12-20T14:07:58.882Z,63.98
2018-12-20T14:10:31.263Z,64.03
2018-12-20T14:13:03.887Z,64.26
2018-12-20T14:15:36.634Z,63.79
2018-12-20T14:18:09.239Z,64.12
2018-12-20T14:20:41.914Z,63.97
2018-12-20T14:23:14.559Z,64.12
2018-12-20T14:25:47.211Z,64.21
2018-12-20T14:28:19.854Z,64.20
2018-12-20T14:30:52.590Z,64.35
2018-12-20T14:33:25.302Z,64.02
2018-12-20T14:35:57.948Z,64.12
2018-12-20T14:38:30.889Z,64.14
2018-12-20T14:41:03.616Z,64.19
2018-12-20T14:43:36.249Z,64.13
2018-12-20T14:46:09.035Z,64.06
2018-12-20T14:48:41.650Z,64.13
2018-12-20T14:51:14.370Z,63.97
2018-12-20T14:53:47.024Z,64.15
2018-12-20T14:56:20.144Z,64.11
2018-12-20T14:58:52.791Z,64.15
2018-12-20T15:01:25.434Z,64.34
2018-12-20T15:03:58.048Z,63.95
2018-12-20T15:06:30.822Z,63.91
2018-12-20T15:09:05.543Z,64.08
2018-12-20T15:11:38.325Z,64.04
2018-12-20T15:14:10.936Z,63.99
2018-12-20T15:16:43.573Z,63.85
2018-12-20T15:19:16.176Z,64.07
2018-12-20T15:21:48.908Z,64.09
2018-12-20T15:24:21.488Z,64.25
2018-12-20T15:26:54.821Z,64.40
2018-12-20T15:29:27.441Z,64.04
2018-12-20T15:32:00.160Z,64.07
2018-12-20T15:34:32.842Z,64.22
2018-12-20T15:37:05.536Z,64.17
2018-12-20T15:39:38.205Z,64.25
2018-12-20T15:42:11.019Z,64.14
2018-12-20T15:44:43.781Z,64.33
2018-12-20T15:47:16.651Z,64.42
2018-12-20T15:49:49.274Z,64.13
2018-12-20T15:52:21.960Z,64.51
2018-12-20T15:54:54.605Z,64.48
2018-12-20T15:57:28.291Z,64.43
2018-12-20T16:00:02.839Z,64.36
2018-12-20T16:02:35.958Z,64.08
2018-12-20T16:05:09.047Z,64.61
2018-12-20T16:07:41.757Z,64.50
2018-12-20T16:10:14.346Z,64.45
2018-12-20T16:12:47.074Z,64.58
2018-12-20T16:15:20.076Z,64.53
2018-12-20T16:17:53.653Z,64.60
2018-12-20T16:20:26.285Z,64.52
2018-12-20T16:22:58.929Z,64.68
2018-12-20T16:25:31.663Z,64.52
2018-12-20T16:28:04.398Z,64.62
2018-12-20T16:30:37.032Z,64.57
2018-12-20T16:33:09.690Z,64.44
2018-12-20T16:35:42.321Z,64.58
2018-12-20T16:38:15.168Z,64.57
2018-12-20T16:40:47.818Z,64.74
2018-12-20T16:43:20.708Z,64.50
2018-12-20T16:45:53.320Z,64.54
2018-12-20T16:48:25.977Z,64.49
2018-12-20T16:50:58.570Z,64.38
2018-12-20T16:53:31.267Z,64.37
2018-12-20T16:56:03.889Z,64.50
2018-12-20T16:58:36.544Z,64.38
2018-12-20T17:01:09.138Z,64.46
2018-12-20T17:03:42.073Z,64.65
2018-12-20T17:06:14.710Z,64.73
2018-12-20T17:08:48.398Z,64.78
2018-12-20T17:11:21.415Z,65.04
2018-12-20T17:13:54.023Z,64.82
2018-12-20T17:16:26.621Z,65.06
2018-12-20T17:18:59.355Z,64.77
2018-12-20T17:21:32.012Z,65.04
2018-12-20T17:24:04.823Z,65.00
2018-12-20T17:26:37.424Z,64.90
2018-12-20T17:29:10.111Z,64.95
2018-12-20T17:31:42.683Z,64.63
2018-12-20T17:34:15.312Z,64.65
2018-12-20T17:36:48.030Z,64.79
2018-12-20T17:39:20.665Z,64.56
2018-12-20T17:41:53.264Z,64.68
2018-12-20T17:44:25.874Z,64.54
2018-12-20T17:46:58.449Z,64.09
2018-12-20T17:49:31.076Z,64.94
2018-12-20T17:52:03.709Z,64.58
2018-12-20T17:54:36.436Z,64.69
2018-12-20T17:57:09.045Z,64.68
2018-12-20T17:59:41.676Z,64.49
2018-12-20T18:02:14.264Z,64.35
2018-12-20T18:04:46.927Z,64.42
2018-12-20T18:07:19.570Z,64.48
2018-12-20T18:09:52.243Z,64.36
2018-12-20T18:12:24.852Z,64.36
2018-12-20T18:14:57.574Z,64.25
2018-12-20T18:17:30.160Z,64.51
2018-12-20T18:20:02.896Z,64.48
2018-12-20T18:22:35.481Z,64.54
2018-12-20T18:25:08.203Z,64.84
2018-12-20T18:27:40.796Z,64.65
2018-12-20T18:30:13.525Z,64.88
2018-12-20T18:32:46.124Z,64.89
2018-12-20T18:35:18.752Z,64.77
2018-12-20T18:37:51.330Z,64.86
2018-12-20T18:40:23.952Z,64.78
2018-12-20T18:42:56.566Z,64.77
2018-12-20T18:45:29.297Z,64.80
2018-12-20T18:48:01.883Z,64.72
2018-12-20T18:50:34.837Z,64.80
2018-12-20T18:53:07.430Z,64.71
2018-12-20T18:55:40.125Z,64.65
2018-12-20T18:58:12.732Z,64.96
2018-12-20T19:00:45.349Z,64.97
2018-12-20T19:03:17.944Z,65.10
2018-12-20T19:05:50.569Z,65.30
2018-12-20T19:08:23.151Z,65.63
2018-12-20T19:10:55.887Z,65.46
2018-12-20T19:13:28.508Z,65.45
2018-12-20T19:16:01.130Z,65.48
2018-12-20T19:18:33.734Z,65.69
2018-12-20T19:21:06.380Z,65.49
2018-12-20T19:23:39.106Z,65.51
2018-12-20T19:26:11.864Z,65.54
2018-12-20T19:28:44.521Z,65.40
2018-12-20T19:31:17.218Z,65.65
2018-12-20T19:33:52.125Z,65.57
2018-12-20T19:36:24.602Z,65.65
2018-12-20T19:38:57.181Z,65.89
2018-12-20T19:41:29.802Z,65.63
2018-12-20T19:44:02.396Z,65.71
2018-12-20T19:46:35.113Z,65.79
2018-12-20T19:49:07.693Z,65.73
2018-12-20T19:51:40.351Z,65.64
2018-12-20T19:54:12.946Z,65.87
2018-12-20T19:56:45.655Z,65.89
2018-12-20T19:59:18.572Z,66.21
2018-12-20T20:01:51.329Z,66.07
2018-12-20T20:04:24.002Z,66.01
2018-12-20T20:06:56.729Z,66.02
2018-12-20T20:09:29.341Z,66.17
2018-12-20T20:12:01.975Z,65.94
2018-12-20T20:14:34.568Z,65.99
2018-12-20T20:17:07.185Z,65.90
2018-12-20T20:19:39.891Z,65.84
2018-12-20T20:22:12.524Z,65.83
2018-12-20T20:24:45.130Z,65.88
2018-12-20T20:27:17.779Z,65.76
2018-12-20T20:29:50.381Z,66.17
2018-12-20T20:32:23.004Z,66.23
2018-12-20T20:34:55.596Z,66.03
2018-12-20T20:37:28.294Z,66.28
2018-12-20T20:40:00.882Z,66.25
2018-12-20T20:42:33.584Z,66.22
2018-12-20T20:45:06.623Z,66.13
2018-12-20T20:47:39.509Z,65.95
2018-12-20T20:50:12.167Z,66.17
2018-12-20T20:52:44.876Z,66.25
2018-12-20T20:55:17.454Z,66.00
2018-12-20T20:57:50.076Z,66.22
2018-12-20T21:00:22.691Z,65.87
2018-12-20T21:02:55.325Z,65.88
2018-12-20T21:05:27.904Z,66.12
2018-12-20T21:08:00.533Z,65.90
2018-12-20T21:10:33.159Z,65.78
2018-12-20T21:13:05.782Z,66.42
2018-12-20T21:15:38.416Z,66.11
2018-12-20T21:18:11.097Z,66.15
2018-12-20T21:20:43.688Z,66.15
2018-12-20T21:23:16.387Z,66.11
2018-12-20T21:25:48.985Z,65.78
2018-12-20T21:28:21.627Z,66.31
2018-12-20T21:30:54.221Z,66.42
2018-12-20T21:33:26.918Z,66.48
2018-12-20T21:35:59.491Z,66.18
2018-12-20T21:38:32.099Z,65.99
2018-12-20T21:41:04.689Z,65.85
2018-12-20T21:43:37.455Z,65.90
2018-12-20T21:46:10.045Z,65.74
2018-12-20T21:48:42.674Z,65.83
2018-12-20T21:51:15.280Z,65.75
2018-12-20T21:53:54.821Z,65.62
2018-12-20T21:56:23.073Z,65.87
2018-12-20T21:58:55.891Z,66.13
2018-12-20T22:01:28.480Z,66.03
2018-12-20T22:04:01.113Z,66.00
2018-12-20T22:06:33.700Z,65.85
2018-12-20T22:09:06.452Z,65.97
2018-12-20T22:11:39.049Z,65.74
2018-12-20T22:14:12.138Z,65.81
2018-12-20T22:16:45.413Z,65.92
2018-12-20T22:19:18.855Z,65.93
2018-12-20T22:21:51.514Z,65.50
2018-12-20T22:24:24.163Z,65.58
2018-12-20T22:26:56.884Z,65.93
2018-12-20T22:29:29.515Z,65.78
2018-12-20T22:32:02.112Z,65.53
2018-12-20T22:34:34.777Z,65.72
2018-12-20T22:37:07.351Z,65.87
2018-12-20T22:39:39.984Z,65.66
2018-12-20T22:42:12.614Z,65.67
2018-12-20T22:44:45.258Z,65.66
2018-12-20T22:47:17.873Z,65.67
2018-12-20T22:49:50.565Z,65.88
2018-12-20T22:52:23.198Z,66.05
2018-12-20T22:54:55.844Z,66.21
2018-12-20T22:57:28.528Z,66.08
2018-12-20T23:00:01.252Z,66.34
2018-12-20T23:02:33.856Z,66.09
2018-12-20T23:05:06.712Z,66.15
2018-12-20T23:07:39.311Z,66.19
2018-12-20T23:10:11.939Z,65.88
2018-12-20T23:12:44.564Z,66.18
2018-12-20T23:15:17.173Z,66.10
2018-12-20T23:17:49.787Z,66.07
2018-12-20T23:20:22.480Z,66.18
2018-12-20T23:22:55.211Z,65.94
2018-12-20T23:25:27.950Z,66.09
2018-12-20T23:28:00.716Z,66.01
2018-12-20T23:30:33.451Z,66.26
2018-12-20T23:33:06.187Z,65.91
2018-12-20T23:35:39.067Z,65.96
2018-12-20T23:38:11.787Z,65.95
2018-12-20T23:40:44.585Z,66.07
2018-12-20T23:43:17.679Z,66.21
2018-12-20T23:45:50.544Z,66.21
2018-12-20T23:48:23.147Z,66.34
2018-12-20T23:50:55.864Z,65.97
2018-12-20T23:53:28.658Z,66.16
2018-12-20T23:56:01.295Z,66.19
2018-12-20T23:58:33.912Z,66.17
